createdAt,value
2023-03-16T00:00:28.281Z,4.21
2023-03-16T00:01:59.848Z,4.54
2023-03-16T00:03:31.218Z,4.33
2023-03-16T00:05:02.927Z,4.46
2023-03-16T00:06:34.281Z,4.32
2023-03-16T00:08:05.518Z,4.50
2023-03-16T00:09:36.937Z,4.54
2023-03-16T00:11:08.368Z,4.76
2023-03-16T00:12:39.626Z,4.60
2023-03-16T00:14:11.149Z,4.21
2023-03-16T00:15:42.619Z,4.16
2023-03-16T00:17:13.751Z,4.38
2023-03-16T00:18:45.139Z,4.53
2023-03-16T00:20:16.521Z,4.35
2023-03-16T00:21:47.891Z,4.37
2023-03-16T00:23:19.259Z,4.40
2023-03-16T00:24:50.475Z,4.03
2023-03-16T00:26:21.722Z,4.30
2023-03-16T00:27:53.047Z,4.37
2023-03-16T00:29:24.370Z,4.41
2023-03-16T00:30:55.874Z,4.33
2023-03-16T00:32:27.455Z,4.48
2023-03-16T00:33:58.858Z,4.40
2023-03-16T00:35:30.318Z,4.62
2023-03-16T00:37:01.783Z,4.55
2023-03-16T00:38:33.121Z,4.52
2023-03-16T00:40:04.401Z,4.47
2023-03-16T00:41:35.801Z,4.56
2023-03-16T00:43:06.932Z,4.38
2023-03-16T00:44:39.606Z,4.46
2023-03-16T00:46:11.046Z,4.35
2023-03-16T00:47:42.564Z,4.35
2023-03-16T00:49:13.773Z,4.52
2023-03-16T00:50:44.976Z,4.32
2023-03-16T00:52:16.515Z,4.74
2023-03-16T00:53:47.941Z,4.27
2023-03-16T00:55:19.168Z,4.38
2023-03-16T00:56:50.580Z,4.52
2023-03-16T00:58:22.021Z,4.25
2023-03-16T00:59:53.423Z,4.12
2023-03-16T01:01:24.742Z,4.05
2023-03-16T01:03:01.584Z,4.11
2023-03-16T01:04:33.021Z,4.16
2023-03-16T01:06:04.208Z,4.10
2023-03-16T01:07:35.610Z,4.06
2023-03-16T01:09:06.843Z,4.36
2023-03-16T01:10:38.323Z,4.30
2023-03-16T01:12:09.535Z,4.11
2023-03-16T01:13:40.868Z,4.24
2023-03-16T01:15:12.243Z,4.00
2023-03-16T01:16:43.640Z,4.10
2023-03-16T01:18:14.916Z,3.87
2023-03-16T01:19:46.346Z,4.01
2023-03-16T01:21:17.783Z,3.95
2023-03-16T01:22:49.103Z,3.91
2023-03-16T01:24:20.437Z,3.83
2023-03-16T01:25:51.970Z,4.33
2023-03-16T01:27:23.284Z,4.09
2023-03-16T01:28:54.531Z,3.94
2023-03-16T01:30:26.198Z,4.00
2023-03-16T01:31:57.691Z,3.75
2023-03-16T01:33:28.970Z,3.98
2023-03-16T01:35:00.389Z,3.80
2023-03-16T01:36:31.742Z,3.80
2023-03-16T01:38:04.032Z,3.96
2023-03-16T01:39:35.301Z,3.53
2023-03-16T01:41:06.684Z,3.82
2023-03-16T01:42:38.932Z,3.64
2023-03-16T01:44:10.117Z,3.50
2023-03-16T01:45:41.276Z,3.59
2023-03-16T01:47:12.770Z,4.19
2023-03-16T01:48:44.129Z,4.52
2023-03-16T01:50:15.842Z,4.24
2023-03-16T01:51:47.426Z,4.06
2023-03-16T01:53:18.722Z,3.78
2023-03-16T01:54:50.043Z,3.66
2023-03-16T01:56:21.273Z,3.56
2023-03-16T01:57:52.501Z,3.63
2023-03-16T01:59:24.016Z,3.64
2023-03-16T02:00:55.475Z,3.70
2023-03-16T02:02:26.838Z,3.72
2023-03-16T02:03:58.675Z,3.76
2023-03-16T02:05:30.704Z,3.80
2023-03-16T02:07:01.833Z,3.57
2023-03-16T02:08:33.079Z,3.43
2023-03-16T02:10:04.624Z,3.58
2023-03-16T02:11:35.849Z,3.57
2023-03-16T02:13:07.069Z,3.61
2023-03-16T02:14:38.429Z,3.41
2023-03-16T02:16:09.770Z,3.38
2023-03-16T02:17:41.113Z,3.53
2023-03-16T02:19:12.283Z,3.30
2023-03-16T02:20:43.656Z,3.31
2023-03-16T02:22:15.194Z,3.29
2023-03-16T02:23:46.588Z,3.39
2023-03-16T02:25:17.843Z,3.45
2023-03-16T02:26:49.598Z,3.01
2023-03-16T02:28:20.953Z,3.09
2023-03-16T02:29:52.388Z,3.21
2023-03-16T02:31:23.826Z,2.95
2023-03-16T02:32:55.173Z,3.16
2023-03-16T02:34:26.402Z,3.30
2023-03-16T02:35:57.669Z,3.15
2023-03-16T02:37:29.151Z,2.98
2023-03-16T02:39:00.364Z,2.90
2023-03-16T02:40:31.671Z,2.78
2023-03-16T02:42:03.232Z,2.77
2023-03-16T02:43:34.403Z,2.98
2023-03-16T02:45:05.683Z,2.80
2023-03-16T02:46:36.877Z,2.81
2023-03-16T02:48:08.076Z,3.02
2023-03-16T02:49:39.317Z,3.01
2023-03-16T02:51:10.808Z,3.08
2023-03-16T02:52:41.991Z,3.25
2023-03-16T02:54:13.389Z,3.16
2023-03-16T02:55:44.631Z,2.75
2023-03-16T02:57:15.989Z,2.91
2023-03-16T02:58:47.403Z,3.03
2023-03-16T03:00:19.020Z,2.84
2023-03-16T03:01:51.492Z,2.71
2023-03-16T03:03:23.800Z,2.88
2023-03-16T03:04:55.440Z,2.89
2023-03-16T03:06:27.166Z,2.96
2023-03-16T03:07:59.163Z,2.89
2023-03-16T03:09:30.672Z,2.76
2023-03-16T03:11:01.829Z,2.50
2023-03-16T03:12:33.078Z,2.75
2023-03-16T03:14:04.601Z,2.81
2023-03-16T03:15:35.834Z,2.86
2023-03-16T03:17:07.412Z,2.88
2023-03-16T03:18:38.663Z,2.74
2023-03-16T03:20:10.352Z,2.78
2023-03-16T03:21:41.580Z,2.56
2023-03-16T03:23:12.904Z,2.94
2023-03-16T03:24:44.667Z,2.81
2023-03-16T03:26:16.191Z,2.79
2023-03-16T03:27:47.925Z,2.55
2023-03-16T03:29:19.149Z,2.64
2023-03-16T03:30:50.541Z,2.72
2023-03-16T03:32:22.045Z,2.54
2023-03-16T03:33:53.633Z,2.55
2023-03-16T03:35:25.148Z,2.60
2023-03-16T03:36:56.596Z,2.46
2023-03-16T03:38:27.985Z,2.66
2023-03-16T03:39:59.239Z,2.81
2023-03-16T03:41:30.528Z,2.77
2023-03-16T03:43:01.962Z,2.80
2023-03-16T03:44:33.218Z,2.69
2023-03-16T03:46:04.612Z,2.46
2023-03-16T03:47:35.909Z,2.61
2023-03-16T03:49:07.203Z,2.59
2023-03-16T03:50:38.646Z,2.65
2023-03-16T03:52:09.858Z,2.47
2023-03-16T03:53:41.113Z,2.53
2023-03-16T03:55:12.618Z,2.30
2023-03-16T03:56:44.032Z,2.63
2023-03-16T03:58:15.612Z,2.57
2023-03-16T03:59:46.907Z,2.54
2023-03-16T04:01:18.147Z,2.50
2023-03-16T04:02:49.607Z,2.37
2023-03-16T04:04:20.898Z,2.30
2023-03-16T04:05:52.249Z,2.57
2023-03-16T04:07:23.682Z,2.48
2023-03-16T04:08:55.457Z,2.43
2023-03-16T04:10:27.030Z,2.36
2023-03-16T04:11:59.363Z,2.47
2023-03-16T04:13:30.935Z,2.24
2023-03-16T04:15:02.115Z,2.35
2023-03-16T04:16:33.399Z,2.19
2023-03-16T04:18:04.802Z,2.13
2023-03-16T04:19:36.220Z,2.25
2023-03-16T04:21:07.837Z,2.10
2023-03-16T04:22:39.087Z,2.10
2023-03-16T04:24:10.362Z,2.30
2023-03-16T04:25:41.947Z,2.08
2023-03-16T04:27:13.274Z,2.19
2023-03-16T04:28:45.140Z,2.34
2023-03-16T04:30:16.755Z,2.13
2023-03-16T04:31:48.359Z,2.13
2023-03-16T04:33:19.629Z,2.36
2023-03-16T04:34:50.980Z,2.24
2023-03-16T04:36:22.234Z,2.19
2023-03-16T04:37:53.847Z,2.14
2023-03-16T04:39:25.505Z,2.51
2023-03-16T04:40:56.852Z,2.08
2023-03-16T04:42:28.040Z,2.34
2023-03-16T04:43:59.522Z,2.08
2023-03-16T04:45:30.732Z,2.34
2023-03-16T04:47:01.962Z,2.12
2023-03-16T04:48:33.477Z,2.26
2023-03-16T04:50:04.804Z,2.14
2023-03-16T04:51:37.389Z,2.21
2023-03-16T04:53:08.964Z,2.02
2023-03-16T04:54:40.572Z,2.12
2023-03-16T04:56:11.965Z,2.11
2023-03-16T04:57:43.511Z,2.24
2023-03-16T04:59:14.777Z,2.15
2023-03-16T05:00:48.008Z,2.14
2023-03-16T05:02:19.396Z,2.42
2023-03-16T05:03:50.914Z,2.22
2023-03-16T05:05:22.376Z,2.29
2023-03-16T05:06:54.168Z,2.75
2023-03-16T05:08:25.688Z,2.29
2023-03-16T05:09:57.123Z,2.04
2023-03-16T05:11:28.649Z,2.20
2023-03-16T05:13:00.076Z,2.25
2023-03-16T05:14:31.911Z,2.36
2023-03-16T05:16:03.308Z,2.30
2023-03-16T05:17:34.968Z,2.36
2023-03-16T05:19:06.762Z,2.39
2023-03-16T05:20:38.103Z,2.49
2023-03-16T05:22:09.641Z,2.62
2023-03-16T05:23:41.067Z,2.76
2023-03-16T05:25:59.146Z,2.89
2023-03-16T05:27:30.455Z,3.03
2023-03-16T05:29:01.795Z,2.82
2023-03-16T05:30:33.028Z,3.00
2023-03-16T05:32:04.329Z,3.13
2023-03-16T05:33:35.866Z,3.38
2023-03-16T05:35:07.173Z,3.32
2023-03-16T05:36:38.687Z,3.46
2023-03-16T05:38:09.860Z,3.77
2023-03-16T05:39:41.242Z,3.80
2023-03-16T05:41:12.416Z,4.19
2023-03-16T05:42:43.864Z,4.00
2023-03-16T05:44:15.238Z,4.19
2023-03-16T05:45:46.457Z,4.17
2023-03-16T05:47:17.887Z,4.44
2023-03-16T05:48:49.427Z,4.44
2023-03-16T05:50:20.804Z,4.37
2023-03-16T05:51:52.021Z,4.39
2023-03-16T05:53:23.309Z,4.32
2023-03-16T05:54:54.655Z,4.44
2023-03-16T05:56:26.121Z,4.66
2023-03-16T05:57:57.603Z,4.44
2023-03-16T05:59:29.179Z,4.51
2023-03-16T06:01:00.818Z,4.37
2023-03-16T06:02:32.274Z,4.54
2023-03-16T06:04:03.793Z,4.47
2023-03-16T06:05:35.273Z,4.34
2023-03-16T06:07:06.606Z,4.35
2023-03-16T06:08:38.048Z,4.41
2023-03-16T06:10:09.345Z,4.24
2023-03-16T06:11:40.730Z,4.45
2023-03-16T06:13:11.926Z,3.74
2023-03-16T06:14:43.217Z,4.03
2023-03-16T06:16:14.518Z,4.46
2023-03-16T06:17:46.328Z,4.08
2023-03-16T06:19:17.863Z,4.23
2023-03-16T06:20:49.329Z,4.02
2023-03-16T06:22:20.820Z,3.98
2023-03-16T06:23:52.196Z,4.08
2023-03-16T06:25:23.403Z,4.19
2023-03-16T06:26:54.897Z,4.06
2023-03-16T06:28:26.399Z,4.18
2023-03-16T06:29:57.889Z,3.62
2023-03-16T06:31:29.324Z,3.57
2023-03-16T06:33:00.810Z,3.50
2023-03-16T06:34:32.115Z,3.69
2023-03-16T06:36:03.613Z,3.50
2023-03-16T06:37:34.892Z,3.44
2023-03-16T06:39:06.212Z,3.76
2023-03-16T06:40:37.463Z,3.49
2023-03-16T06:42:08.769Z,3.56
2023-03-16T06:43:40.428Z,3.41
2023-03-16T06:45:11.731Z,3.06
2023-03-16T06:46:43.037Z,3.07
2023-03-16T06:48:14.583Z,3.30
2023-03-16T06:49:46.208Z,3.30
2023-03-16T06:51:17.707Z,3.24
2023-03-16T06:52:49.340Z,3.26
2023-03-16T06:54:20.526Z,3.42
2023-03-16T06:55:51.744Z,3.43
2023-03-16T06:57:23.105Z,2.89
2023-03-16T06:58:54.916Z,3.22
2023-03-16T07:00:27.693Z,3.17
2023-03-16T07:01:59.390Z,3.23
2023-03-16T07:03:31.059Z,3.53
2023-03-16T07:05:02.370Z,3.18
2023-03-16T07:06:33.652Z,3.21
2023-03-16T07:08:05.416Z,3.66
2023-03-16T07:09:39.618Z,3.30
2023-03-16T07:11:12.512Z,3.42
2023-03-16T07:12:43.776Z,3.29
2023-03-16T07:14:15.106Z,3.05
2023-03-16T07:15:46.742Z,3.08
2023-03-16T07:17:18.056Z,3.47
2023-03-16T07:18:49.435Z,3.28
2023-03-16T07:20:23.440Z,3.64
2023-03-16T07:21:55.008Z,3.28
2023-03-16T07:23:26.437Z,3.25
2023-03-16T07:24:58.152Z,3.03
2023-03-16T07:26:29.385Z,3.24
2023-03-16T07:28:00.717Z,3.35
2023-03-16T07:29:32.275Z,3.40
2023-03-16T07:31:04.461Z,2.95
2023-03-16T07:32:36.131Z,3.04
2023-03-16T07:34:07.497Z,3.33
2023-03-16T07:35:38.719Z,2.91
2023-03-16T07:37:10.345Z,3.10
2023-03-16T07:38:41.623Z,3.11
2023-03-16T07:40:13.094Z,3.13
2023-03-16T07:41:44.342Z,3.00
2023-03-16T07:43:16.066Z,2.92
2023-03-16T07:44:47.431Z,3.12
2023-03-16T07:46:19.053Z,2.90
2023-03-16T07:47:50.432Z,3.04
2023-03-16T07:49:21.685Z,3.02
2023-03-16T07:50:53.013Z,2.83
2023-03-16T07:52:24.287Z,2.92
2023-03-16T07:53:55.558Z,3.03
2023-03-16T07:55:27.037Z,2.90
2023-03-16T07:56:58.606Z,2.69
2023-03-16T07:58:29.885Z,2.65
2023-03-16T08:00:01.407Z,2.72
2023-03-16T08:01:32.830Z,2.55
2023-03-16T08:03:04.047Z,2.66
2023-03-16T08:04:35.429Z,2.84
2023-03-16T08:06:06.917Z,3.03
2023-03-16T08:07:38.387Z,2.70
2023-03-16T08:09:09.827Z,2.72
2023-03-16T08:10:41.326Z,2.76
2023-03-16T08:12:12.666Z,2.76
2023-03-16T08:13:44.035Z,3.03
2023-03-16T08:15:15.478Z,2.84
2023-03-16T08:16:46.694Z,2.71
2023-03-16T08:18:18.098Z,2.40
2023-03-16T08:19:49.473Z,2.84
2023-03-16T08:21:20.842Z,2.77
2023-03-16T08:22:52.246Z,2.86
2023-03-16T08:24:23.800Z,2.79
2023-03-16T08:25:55.109Z,3.10
2023-03-16T08:27:26.400Z,2.74
2023-03-16T08:28:57.837Z,2.91
2023-03-16T08:30:29.496Z,2.90
2023-03-16T08:32:01.057Z,3.04
2023-03-16T08:33:32.447Z,2.79
2023-03-16T08:35:04.196Z,3.09
2023-03-16T08:36:35.482Z,2.76
2023-03-16T08:38:06.860Z,2.31
2023-03-16T08:39:43.700Z,2.68
2023-03-16T08:41:14.943Z,2.96
2023-03-16T08:42:51.727Z,3.06
2023-03-16T08:44:23.056Z,2.90
2023-03-16T08:45:54.385Z,3.04
2023-03-16T08:47:30.742Z,2.85
2023-03-16T08:49:01.990Z,2.91
2023-03-16T08:50:33.238Z,3.02
2023-03-16T08:52:04.491Z,2.72
2023-03-16T08:53:35.838Z,2.79
2023-03-16T08:55:07.182Z,2.90
2023-03-16T08:56:39.007Z,2.66
2023-03-16T08:58:10.282Z,2.88
2023-03-16T08:59:43.333Z,2.92
2023-03-16T09:01:14.914Z,2.95
2023-03-16T09:02:46.395Z,2.96
2023-03-16T09:04:17.832Z,2.97
2023-03-16T09:05:49.406Z,2.99
2023-03-16T09:07:20.848Z,3.10
2023-03-16T09:08:52.249Z,2.84
2023-03-16T09:10:23.554Z,3.12
2023-03-16T09:11:54.858Z,2.91
2023-03-16T09:13:26.260Z,2.91
2023-03-16T09:14:57.635Z,2.93
2023-03-16T09:16:29.273Z,2.80
2023-03-16T09:18:00.792Z,2.90
2023-03-16T09:19:44.291Z,2.88
2023-03-16T09:21:22.354Z,2.93
2023-03-16T09:22:53.617Z,3.01
2023-03-16T09:24:25.205Z,3.00
2023-03-16T09:25:56.557Z,2.86
2023-03-16T09:27:27.831Z,2.92
2023-03-16T09:28:59.512Z,2.73
2023-03-16T09:30:31.125Z,3.06
2023-03-16T09:32:02.651Z,2.83
2023-03-16T09:33:34.025Z,2.70
2023-03-16T09:35:05.368Z,2.71
2023-03-16T09:36:37.108Z,3.00
2023-03-16T09:38:08.401Z,2.87
2023-03-16T09:39:39.672Z,2.67
2023-03-16T09:41:11.355Z,2.85
2023-03-16T09:42:42.650Z,2.66
2023-03-16T09:44:14.082Z,2.82
2023-03-16T09:45:45.521Z,2.81
2023-03-16T09:47:16.867Z,2.94
2023-03-16T09:48:48.168Z,2.93
2023-03-16T09:50:19.425Z,2.81
2023-03-16T09:51:51.005Z,2.64
2023-03-16T09:53:23.014Z,2.72
2023-03-16T09:54:54.704Z,2.78
2023-03-16T09:56:26.152Z,2.80
2023-03-16T09:57:57.610Z,2.58
2023-03-16T09:59:29.066Z,2.79
2023-03-16T10:01:00.570Z,2.94
2023-03-16T10:02:31.956Z,2.90
2023-03-16T10:04:03.252Z,2.77
2023-03-16T10:05:34.883Z,2.74
2023-03-16T10:07:06.765Z,2.64
2023-03-16T10:08:38.562Z,2.62
2023-03-16T10:10:09.926Z,2.67
2023-03-16T10:11:41.286Z,2.93
2023-03-16T10:13:12.634Z,2.55
2023-03-16T10:14:43.946Z,2.62
2023-03-16T10:16:15.401Z,2.60
2023-03-16T10:17:46.737Z,2.84
2023-03-16T10:19:18.047Z,2.82
2023-03-16T10:20:49.456Z,2.82
2023-03-16T10:22:21.488Z,2.79
2023-03-16T10:23:53.890Z,2.76
2023-03-16T10:25:25.230Z,2.67
2023-03-16T10:26:56.559Z,2.89
2023-03-16T10:28:28.554Z,2.64
2023-03-16T10:30:00.102Z,2.77
2023-03-16T10:31:31.616Z,2.74
2023-03-16T10:33:03.177Z,2.78
2023-03-16T10:34:34.507Z,2.52
2023-03-16T10:36:06.031Z,2.55
2023-03-16T10:37:37.661Z,2.86
2023-03-16T10:39:08.981Z,2.70
2023-03-16T10:40:40.411Z,2.91
2023-03-16T10:42:12.225Z,2.75
2023-03-16T10:43:43.584Z,2.67
2023-03-16T10:45:15.143Z,2.70
2023-03-16T10:46:46.773Z,2.69
2023-03-16T10:48:18.220Z,2.64
2023-03-16T10:49:49.568Z,2.67
2023-03-16T10:51:21.322Z,2.80
2023-03-16T10:52:52.827Z,2.76
2023-03-16T10:54:24.165Z,2.63
2023-03-16T10:55:55.512Z,2.66
2023-03-16T10:57:26.924Z,2.69
2023-03-16T10:58:58.460Z,2.81
2023-03-16T11:00:29.912Z,2.89
2023-03-16T11:02:06.620Z,2.88
2023-03-16T11:03:38.310Z,2.73
2023-03-16T11:05:10.244Z,2.60
2023-03-16T11:06:41.775Z,2.66
2023-03-16T11:08:13.315Z,2.66
2023-03-16T11:09:44.683Z,2.83
2023-03-16T11:11:16.265Z,2.71
2023-03-16T11:12:47.560Z,2.78
2023-03-16T11:14:20.000Z,3.16
2023-03-16T11:15:51.592Z,3.08
2023-03-16T11:17:23.565Z,3.00
2023-03-16T11:18:54.905Z,2.73
2023-03-16T11:20:26.459Z,2.88
2023-03-16T11:21:57.876Z,3.02
2023-03-16T11:23:30.613Z,2.92
2023-03-16T11:25:02.127Z,2.80
2023-03-16T11:26:33.519Z,2.80
2023-03-16T11:28:04.902Z,3.15
2023-03-16T11:29:36.320Z,3.15
2023-03-16T11:31:07.838Z,3.12
2023-03-16T11:32:39.293Z,3.22
2023-03-16T11:34:10.727Z,3.20
2023-03-16T11:35:52.750Z,3.09
2023-03-16T11:37:29.642Z,2.86
2023-03-16T11:39:01.121Z,3.12
2023-03-16T11:40:33.801Z,2.69
2023-03-16T11:42:05.139Z,2.47
2023-03-16T11:43:36.499Z,2.76
2023-03-16T11:45:12.829Z,2.48
2023-03-16T11:46:44.402Z,2.34
2023-03-16T11:48:15.885Z,2.67
2023-03-16T11:49:47.211Z,2.37
2023-03-16T11:51:18.564Z,2.79
2023-03-16T11:52:49.939Z,2.52
2023-03-16T11:54:21.371Z,2.11
2023-03-16T11:55:52.920Z,2.17
2023-03-16T11:57:24.377Z,2.29
2023-03-16T11:58:55.832Z,2.22
2023-03-16T12:00:27.347Z,2.10
2023-03-16T12:02:01.041Z,2.15
2023-03-16T12:03:32.919Z,1.87
2023-03-16T12:05:04.334Z,2.58
2023-03-16T12:06:35.921Z,2.22
2023-03-16T12:08:07.372Z,2.44
2023-03-16T12:09:38.785Z,2.13
2023-03-16T12:11:10.717Z,2.21
2023-03-16T12:12:42.267Z,2.19
2023-03-16T12:14:13.779Z,2.00
2023-03-16T12:15:45.507Z,2.03
2023-03-16T12:17:16.874Z,2.18
2023-03-16T12:18:48.257Z,2.13
2023-03-16T12:20:19.700Z,2.00
2023-03-16T12:21:56.325Z,1.90
2023-03-16T12:23:29.038Z,1.90
2023-03-16T12:25:00.737Z,1.73
2023-03-16T12:26:32.136Z,1.64
2023-03-16T12:28:03.860Z,1.55
2023-03-16T12:29:35.318Z,2.24
2023-03-16T12:31:06.694Z,1.88
2023-03-16T12:32:38.206Z,1.57
2023-03-16T12:34:09.739Z,1.59
2023-03-16T12:35:41.351Z,1.69
2023-03-16T12:37:12.945Z,1.76
2023-03-16T12:38:44.376Z,1.62
2023-03-16T12:40:15.837Z,1.62
2023-03-16T12:41:47.309Z,1.57
2023-03-16T12:43:18.745Z,1.76
2023-03-16T12:44:50.430Z,1.93
2023-03-16T12:46:21.976Z,1.92
2023-03-16T12:47:53.380Z,1.80
2023-03-16T12:49:24.829Z,1.55
2023-03-16T12:50:56.364Z,1.68
2023-03-16T12:52:27.887Z,1.84
2023-03-16T12:53:59.351Z,1.65
2023-03-16T12:55:31.019Z,1.64
2023-03-16T12:57:02.429Z,1.70
2023-03-16T12:58:33.825Z,1.65
2023-03-16T13:00:05.283Z,1.66
2023-03-16T13:01:36.744Z,1.39
2023-03-16T13:03:08.120Z,1.71
2023-03-16T13:04:40.353Z,1.50
2023-03-16T13:06:11.831Z,1.68
2023-03-16T13:07:43.411Z,1.78
2023-03-16T13:09:14.771Z,2.33
2023-03-16T13:10:46.360Z,2.00
2023-03-16T13:12:17.749Z,1.55
2023-03-16T13:13:49.140Z,1.62
2023-03-16T13:15:20.493Z,1.86
2023-03-16T13:16:51.950Z,1.92
2023-03-16T13:18:46.150Z,1.64
2023-03-16T13:20:29.525Z,1.46
2023-03-16T13:22:01.603Z,1.55
2023-03-16T13:23:33.072Z,1.71
2023-03-16T13:25:04.701Z,1.82
2023-03-16T13:26:36.035Z,1.50
2023-03-16T13:28:07.569Z,1.55
2023-03-16T13:29:39.170Z,1.90
2023-03-16T13:31:10.547Z,1.58
2023-03-16T13:32:42.029Z,1.53
2023-03-16T13:34:13.449Z,1.56
2023-03-16T13:35:44.775Z,2.07
2023-03-16T13:37:16.154Z,1.91
2023-03-16T13:38:47.923Z,1.97
2023-03-16T13:40:19.244Z,2.51
2023-03-16T13:41:50.621Z,2.91
2023-03-16T13:43:22.118Z,1.85
2023-03-16T13:44:53.483Z,1.70
2023-03-16T13:46:25.018Z,1.57
2023-03-16T13:47:56.451Z,1.57
2023-03-16T13:49:27.961Z,1.65
2023-03-16T13:50:59.323Z,1.69
2023-03-16T13:52:30.850Z,1.61
2023-03-16T13:54:02.324Z,1.77
2023-03-16T13:55:33.739Z,1.56
2023-03-16T13:57:05.305Z,1.82
2023-03-16T13:58:36.827Z,1.72
2023-03-16T14:00:08.281Z,1.68
2023-03-16T14:01:39.997Z,1.58
2023-03-16T14:03:11.669Z,1.66
2023-03-16T14:04:43.575Z,1.68
2023-03-16T14:06:15.068Z,1.85
2023-03-16T14:07:46.591Z,1.77
2023-03-16T14:09:18.110Z,1.68
2023-03-16T14:10:49.707Z,1.72
2023-03-16T14:12:21.211Z,1.68
2023-03-16T14:13:52.696Z,1.69
2023-03-16T14:15:24.199Z,1.64
2023-03-16T14:16:55.648Z,1.85
2023-03-16T14:18:27.111Z,1.78
2023-03-16T14:19:58.470Z,1.75
2023-03-16T14:21:30.021Z,1.90
2023-03-16T14:23:01.561Z,1.88
2023-03-16T14:24:33.038Z,1.69
2023-03-16T14:26:04.769Z,1.78
2023-03-16T14:27:36.265Z,1.82
2023-03-16T14:29:07.657Z,2.02
2023-03-16T14:30:39.316Z,1.84
2023-03-16T14:32:10.890Z,1.71
2023-03-16T14:33:42.623Z,1.54
2023-03-16T14:35:19.413Z,1.61
2023-03-16T14:36:50.818Z,1.92
2023-03-16T14:38:22.347Z,1.74
2023-03-16T14:39:54.055Z,1.81
2023-03-16T14:41:25.699Z,2.00
2023-03-16T14:42:57.547Z,1.78
2023-03-16T14:44:28.876Z,2.07
2023-03-16T14:46:00.321Z,1.67
2023-03-16T14:47:31.659Z,1.88
2023-03-16T14:49:03.137Z,1.82
2023-03-16T14:50:35.138Z,1.72
2023-03-16T14:52:06.515Z,1.63
2023-03-16T14:53:38.196Z,1.72
2023-03-16T14:55:09.732Z,1.52
2023-03-16T14:56:41.100Z,1.62
2023-03-16T14:58:12.431Z,1.67
2023-03-16T14:59:43.890Z,1.73
2023-03-16T15:01:15.377Z,1.44
2023-03-16T15:02:46.964Z,1.57
2023-03-16T15:04:18.855Z,1.56
2023-03-16T15:05:50.871Z,1.53
2023-03-16T15:07:22.380Z,1.64
2023-03-16T15:08:53.949Z,1.59
2023-03-16T15:10:25.686Z,1.60
2023-03-16T15:11:57.092Z,1.46
2023-03-16T15:13:28.450Z,1.47
2023-03-16T15:15:00.090Z,1.79
2023-03-16T15:16:31.883Z,1.68
2023-03-16T15:18:03.279Z,1.50
2023-03-16T15:19:34.810Z,1.37
2023-03-16T15:21:06.194Z,1.53
2023-03-16T15:23:02.149Z,1.44
2023-03-16T15:24:48.928Z,1.39
2023-03-16T15:26:21.179Z,1.54
2023-03-16T15:28:03.844Z,1.37
2023-03-16T15:29:40.399Z,1.30
2023-03-16T15:31:11.865Z,1.53
2023-03-16T15:32:43.704Z,1.43
2023-03-16T15:34:15.409Z,1.47
2023-03-16T15:35:46.916Z,1.41
2023-03-16T15:37:18.501Z,1.58
2023-03-16T15:38:50.266Z,1.50
2023-03-16T15:40:23.079Z,1.85
2023-03-16T15:41:54.615Z,1.59
2023-03-16T15:43:26.100Z,1.74
2023-03-16T15:44:57.678Z,1.52
2023-03-16T15:46:29.188Z,1.44
2023-03-16T15:48:00.659Z,1.50
2023-03-16T15:49:37.805Z,1.62
2023-03-16T15:51:16.416Z,1.66
2023-03-16T15:52:53.210Z,1.38
2023-03-16T15:54:25.994Z,1.45
2023-03-16T15:55:57.405Z,1.37
2023-03-16T15:57:28.906Z,1.56
2023-03-16T15:59:00.471Z,1.56
2023-03-16T16:00:32.181Z,1.67
2023-03-16T16:02:04.204Z,1.63
2023-03-16T16:03:35.579Z,1.59
2023-03-16T16:05:07.037Z,1.67
2023-03-16T16:06:38.495Z,1.50
2023-03-16T16:08:10.339Z,1.56
2023-03-16T16:09:41.733Z,1.64
2023-03-16T16:11:13.139Z,1.70
2023-03-16T16:12:45.000Z,1.66
2023-03-16T16:14:16.499Z,1.41
2023-03-16T16:15:48.385Z,1.55
2023-03-16T16:17:21.177Z,1.60
2023-03-16T16:18:54.190Z,1.54
2023-03-16T16:20:26.035Z,1.48
2023-03-16T16:21:57.559Z,1.57
2023-03-16T16:23:29.098Z,1.47
2023-03-16T16:25:00.905Z,1.66
2023-03-16T16:26:48.181Z,1.66
2023-03-16T16:28:22.358Z,1.61
2023-03-16T16:29:54.199Z,1.62
2023-03-16T16:31:25.814Z,1.48
2023-03-16T16:32:58.705Z,1.89
2023-03-16T16:34:30.357Z,2.12
2023-03-16T16:36:01.867Z,2.60
2023-03-16T16:37:33.231Z,1.88
2023-03-16T16:39:05.266Z,1.83
2023-03-16T16:40:37.507Z,1.58
2023-03-16T16:42:13.876Z,1.45
2023-03-16T16:43:45.595Z,1.86
2023-03-16T16:45:16.930Z,1.67
2023-03-16T16:46:48.516Z,1.60
2023-03-16T16:48:19.830Z,1.87
2023-03-16T16:49:51.693Z,1.80
2023-03-16T16:51:23.079Z,1.86
2023-03-16T16:52:54.621Z,1.63
2023-03-16T16:54:26.187Z,1.63
2023-03-16T16:55:57.638Z,1.88
2023-03-16T16:57:29.096Z,1.66
2023-03-16T16:59:00.799Z,1.74
2023-03-16T17:00:32.158Z,1.74
2023-03-16T17:02:03.645Z,1.69
2023-03-16T17:03:34.963Z,1.73
2023-03-16T17:05:06.278Z,1.61
2023-03-16T17:06:37.768Z,1.74
2023-03-16T17:08:09.104Z,1.71
2023-03-16T17:09:40.616Z,1.72
2023-03-16T17:11:12.065Z,1.61
2023-03-16T17:12:43.807Z,1.62
2023-03-16T17:14:15.461Z,1.40
2023-03-16T17:15:49.123Z,1.62
2023-03-16T17:17:20.639Z,1.76
2023-03-16T17:18:52.383Z,1.73
2023-03-16T17:20:23.884Z,1.92
2023-03-16T17:22:16.379Z,1.65
2023-03-16T17:23:50.489Z,1.98
2023-03-16T17:25:22.012Z,1.87
2023-03-16T17:26:53.336Z,2.54
2023-03-16T17:28:24.691Z,2.33
2023-03-16T17:29:56.116Z,1.95
2023-03-16T17:31:27.866Z,1.74
2023-03-16T17:32:59.445Z,1.67
2023-03-16T17:34:30.886Z,1.72
2023-03-16T17:36:02.214Z,1.80
2023-03-16T17:37:33.976Z,1.92
2023-03-16T17:39:05.512Z,1.81
2023-03-16T17:40:37.143Z,1.73
2023-03-16T17:42:08.422Z,1.83
2023-03-16T17:43:58.106Z,2.06
2023-03-16T17:45:56.205Z,1.86
2023-03-16T17:47:27.552Z,1.90
2023-03-16T17:48:58.987Z,1.86
2023-03-16T17:50:30.791Z,1.64
2023-03-16T17:52:02.676Z,1.79
2023-03-16T17:53:34.220Z,2.13
2023-03-16T17:55:05.562Z,1.78
2023-03-16T17:56:37.132Z,1.61
2023-03-16T17:58:08.927Z,1.84
2023-03-16T17:59:40.592Z,1.77
2023-03-16T18:01:12.061Z,1.89
2023-03-16T18:02:43.836Z,1.96
2023-03-16T18:04:15.190Z,1.77
2023-03-16T18:05:47.239Z,1.71
2023-03-16T18:07:18.935Z,1.64
2023-03-16T18:08:50.507Z,1.73
2023-03-16T18:10:21.777Z,1.93
2023-03-16T18:11:53.207Z,1.66
2023-03-16T18:13:24.707Z,2.16
2023-03-16T18:14:56.229Z,1.91
2023-03-16T18:16:28.171Z,1.86
2023-03-16T18:17:59.733Z,2.10
2023-03-16T18:19:31.457Z,2.20
2023-03-16T18:21:03.005Z,2.00
2023-03-16T18:22:34.307Z,1.92
2023-03-16T18:28:14.000Z,2.03
2023-03-16T18:30:07.877Z,1.84
2023-03-16T18:31:54.086Z,1.86
2023-03-16T18:33:25.516Z,1.86
2023-03-16T18:34:56.953Z,1.97
2023-03-16T18:36:28.578Z,1.98
2023-03-16T18:38:00.315Z,1.75
2023-03-16T18:39:31.675Z,1.81
2023-03-16T18:41:03.129Z,2.06
2023-03-16T18:42:34.776Z,1.78
2023-03-16T18:44:06.749Z,1.91
2023-03-16T18:45:38.400Z,2.03
2023-03-16T18:47:09.702Z,1.74
2023-03-16T18:48:41.050Z,1.89
2023-03-16T18:50:12.398Z,1.93
2023-03-16T18:51:45.302Z,2.09
2023-03-16T18:53:16.609Z,2.29
2023-03-16T18:54:48.151Z,2.02
2023-03-16T18:56:19.741Z,2.03
2023-03-16T18:57:51.232Z,2.02
2023-03-16T18:59:22.940Z,2.12
2023-03-16T19:00:54.536Z,2.15
2023-03-16T19:02:26.113Z,2.13
2023-03-16T19:03:57.428Z,2.01
2023-03-16T19:05:29.163Z,2.38
2023-03-16T19:07:00.596Z,2.41
2023-03-16T19:08:37.154Z,2.27
2023-03-16T19:10:08.604Z,2.34
2023-03-16T19:11:40.530Z,2.33
2023-03-16T19:13:13.079Z,2.43
2023-03-16T19:14:49.894Z,2.36
2023-03-16T19:16:21.344Z,2.47
2023-03-16T19:17:53.029Z,2.35
2023-03-16T19:19:24.660Z,2.27
2023-03-16T19:20:56.620Z,2.53
2023-03-16T19:22:28.421Z,2.29
2023-03-16T19:24:00.173Z,2.31
2023-03-16T19:25:31.984Z,2.39
2023-03-16T19:27:03.785Z,2.55
2023-03-16T19:28:35.336Z,2.72
2023-03-16T19:30:06.999Z,2.46
2023-03-16T19:31:38.282Z,2.36
2023-03-16T19:33:09.567Z,2.56
2023-03-16T19:34:40.962Z,2.42
2023-03-16T19:36:12.364Z,2.35
2023-03-16T19:37:43.746Z,2.60
2023-03-16T19:39:15.482Z,2.46
2023-03-16T19:40:47.317Z,2.45
2023-03-16T19:42:19.053Z,2.46
2023-03-16T19:43:50.663Z,2.40
2023-03-16T19:45:22.259Z,2.53
2023-03-16T19:46:53.659Z,2.62
2023-03-16T19:48:25.469Z,2.55
2023-03-16T19:49:57.300Z,2.61
2023-03-16T19:51:28.655Z,2.47
2023-03-16T19:53:00.190Z,2.66
2023-03-16T19:54:31.585Z,2.62
2023-03-16T19:56:03.084Z,2.41
2023-03-16T19:57:34.824Z,2.59
2023-03-16T19:59:06.375Z,2.57
2023-03-16T20:00:37.624Z,2.80
2023-03-16T20:02:08.919Z,2.57
2023-03-16T20:03:50.438Z,2.77
2023-03-16T20:05:22.159Z,2.98
2023-03-16T20:06:58.749Z,2.73
2023-03-16T20:08:30.126Z,3.19
2023-03-16T20:10:01.554Z,3.03
2023-03-16T20:11:32.922Z,2.79
2023-03-16T20:13:05.077Z,2.70
2023-03-16T20:14:36.797Z,2.86
2023-03-16T20:16:08.129Z,2.76
2023-03-16T20:17:39.819Z,2.56
2023-03-16T20:19:11.202Z,2.54
2023-03-16T20:20:42.617Z,2.82
2023-03-16T20:22:15.190Z,3.25
2023-03-16T20:23:46.741Z,3.98
2023-03-16T20:25:18.245Z,4.57
2023-03-16T20:26:49.977Z,4.58
2023-03-16T20:28:21.712Z,5.09